createdAt,value
2022-11-11T00:01:17.029Z,100.00
2022-11-11T00:03:44.104Z,100.00
2022-11-11T00:06:13.632Z,100.00
2022-11-11T00:08:40.497Z,100.00
2022-11-11T00:11:09.737Z,100.00
2022-11-11T00:13:38.204Z,100.00
2022-11-11T00:16:16.792Z,100.00
2022-11-11T00:19:03.408Z,100.00
2022-11-11T00:21:37.200Z,100.00
2022-11-11T00:24:23.280Z,100.00
2022-11-11T00:26:49.916Z,100.00
2022-11-11T00:29:16.445Z,100.00
2022-11-11T00:32:01.290Z,100.00
2022-11-11T00:34:27.788Z,100.00
2022-11-11T00:36:54.255Z,100.00
2022-11-11T00:39:20.688Z,100.00
2022-11-11T00:41:47.333Z,100.00
2022-11-11T00:44:13.899Z,100.00
2022-11-11T00:46:59.107Z,100.00
2022-11-11T00:49:44.418Z,100.00
2022-11-11T00:52:10.986Z,100.00
2022-11-11T00:54:37.633Z,100.00
2022-11-11T00:57:04.129Z,100.00
2022-11-11T00:59:30.593Z,100.00
2022-11-11T01:01:57.087Z,100.00
2022-11-11T01:04:23.708Z,100.00
2022-11-11T01:06:50.372Z,100.00
2022-11-11T01:09:16.880Z,100.00
2022-11-11T01:11:43.466Z,100.00
2022-11-11T01:14:10.026Z,100.00
2022-11-11T01:16:36.535Z,100.00
2022-11-11T01:19:03.817Z,100.00
2022-11-11T01:21:30.383Z,100.00
2022-11-11T01:23:56.987Z,100.00
2022-11-11T01:26:31.462Z,100.00
2022-11-11T01:28:59.279Z,100.00
2022-11-11T01:31:26.833Z,100.00
2022-11-11T01:33:53.610Z,100.00
2022-11-11T01:36:23.406Z,100.00
2022-11-11T01:38:52.199Z,100.00
2022-11-11T01:41:33.481Z,100.00
2022-11-11T01:44:19.699Z,100.00
2022-11-11T01:46:56.014Z,100.00
2022-11-11T01:49:43.000Z,100.00
2022-11-11T01:52:17.583Z,100.00
2022-11-11T01:54:50.602Z,100.00
2022-11-11T01:57:19.773Z,100.00
2022-11-11T01:59:50.042Z,100.00
2022-11-11T02:02:22.646Z,100.00
2022-11-11T02:05:10.298Z,100.00
2022-11-11T02:07:37.724Z,100.00
2022-11-11T02:10:08.636Z,100.00
2022-11-11T02:12:54.374Z,100.00
2022-11-11T02:15:20.894Z,100.00
2022-11-11T02:17:50.076Z,100.00
2022-11-11T02:20:22.174Z,100.00
2022-11-11T02:22:57.750Z,100.00
2022-11-11T02:25:27.889Z,100.00
2022-11-11T02:27:59.793Z,100.00
2022-11-11T02:30:26.307Z,100.00
2022-11-11T02:32:54.544Z,100.00
2022-11-11T02:35:31.561Z,100.00
2022-11-11T02:37:58.200Z,100.00
2022-11-11T02:41:01.965Z,100.00
2022-11-11T02:43:29.483Z,100.00
2022-11-11T02:45:56.658Z,100.00
2022-11-11T02:48:24.029Z,100.00
2022-11-11T02:50:51.103Z,100.00
2022-11-11T02:53:17.920Z,100.00
2022-11-11T02:55:44.381Z,100.00
2022-11-11T02:58:11.025Z,100.00
2022-11-11T03:00:37.610Z,100.00
2022-11-11T03:03:04.107Z,100.00
2022-11-11T03:05:31.022Z,100.00
2022-11-11T03:07:57.799Z,100.00
2022-11-11T03:10:24.566Z,100.00
2022-11-11T03:12:50.979Z,100.00
2022-11-11T03:15:17.649Z,100.00
2022-11-11T03:17:44.341Z,100.00
2022-11-11T03:20:37.533Z,100.00
2022-11-11T03:23:07.218Z,100.00
2022-11-11T03:25:40.540Z,100.00
2022-11-11T03:28:09.518Z,100.00
2022-11-11T03:30:36.958Z,100.00
2022-11-11T03:33:03.883Z,100.00
2022-11-11T03:35:30.641Z,100.00
2022-11-11T03:38:16.168Z,100.00
2022-11-11T03:40:44.168Z,100.00
2022-11-11T03:43:12.046Z,100.00
2022-11-11T03:45:38.510Z,100.00
2022-11-11T03:48:05.786Z,100.00
2022-11-11T03:50:32.846Z,100.00
2022-11-11T03:52:59.887Z,100.00
2022-11-11T03:55:26.646Z,100.00
2022-11-11T03:57:53.409Z,100.00
2022-11-11T04:00:23.542Z,100.00
2022-11-11T04:03:09.130Z,100.00
2022-11-11T04:05:54.310Z,100.00
2022-11-11T04:08:40.939Z,100.00
2022-11-11T04:11:11.296Z,100.00
2022-11-11T04:13:58.388Z,100.00
2022-11-11T04:16:24.817Z,100.00
2022-11-11T04:19:09.965Z,100.00
2022-11-11T04:21:45.250Z,100.00
2022-11-11T04:24:34.779Z,100.00
2022-11-11T04:27:03.427Z,100.00
2022-11-11T04:29:30.395Z,100.00
2022-11-11T04:32:30.142Z,100.00
2022-11-11T04:34:58.725Z,100.00
2022-11-11T04:37:26.955Z,100.00
2022-11-11T04:40:11.996Z,100.00
2022-11-11T04:42:41.500Z,100.00
2022-11-11T04:45:28.981Z,100.00
2022-11-11T04:48:18.174Z,100.00
2022-11-11T04:50:44.871Z,100.00
2022-11-11T04:53:15.166Z,100.00
2022-11-11T04:56:02.402Z,100.00
2022-11-11T04:58:34.403Z,100.00
2022-11-11T05:01:01.350Z,100.00
2022-11-11T05:03:28.052Z,100.00
2022-11-11T05:06:18.094Z,100.00
2022-11-11T05:08:56.889Z,100.00
2022-11-11T05:11:35.283Z,100.00
2022-11-11T05:14:24.825Z,100.00
2022-11-11T05:17:17.340Z,100.00
2022-11-11T05:20:02.453Z,100.00
2022-11-11T05:22:36.262Z,100.00
2022-11-11T05:25:22.383Z,100.00
2022-11-11T05:27:49.010Z,100.00
2022-11-11T05:30:17.089Z,100.00
2022-11-11T05:32:44.352Z,100.00
2022-11-11T05:35:12.439Z,100.00
2022-11-11T05:37:39.507Z,100.00
2022-11-11T05:40:06.889Z,100.00
2022-11-11T05:42:33.459Z,100.00
2022-11-11T05:44:59.913Z,100.00
2022-11-11T05:47:27.156Z,100.00
2022-11-11T05:49:53.639Z,100.00
2022-11-11T05:52:20.043Z,100.00
2022-11-11T05:54:46.650Z,100.00
2022-11-11T05:57:13.103Z,100.00
2022-11-11T05:59:39.531Z,100.00
2022-11-11T06:02:06.087Z,100.00
2022-11-11T06:04:35.087Z,100.00
2022-11-11T06:07:01.614Z,100.00
2022-11-11T06:09:28.115Z,100.00
2022-11-11T06:11:54.564Z,100.00
2022-11-11T06:14:21.020Z,100.00
2022-11-11T06:16:47.492Z,100.00
2022-11-11T06:19:13.927Z,100.00
2022-11-11T06:21:59.095Z,100.00
2022-11-11T06:24:26.790Z,100.00
2022-11-11T06:26:57.031Z,100.00
2022-11-11T06:29:23.592Z,100.00
2022-11-11T06:31:50.110Z,100.00
2022-11-11T06:34:16.971Z,100.00
2022-11-11T06:36:43.580Z,100.00
2022-11-11T06:39:10.012Z,100.00
2022-11-11T06:41:36.525Z,100.00
2022-11-11T06:44:03.013Z,100.00
2022-11-11T06:46:30.142Z,100.00
2022-11-11T06:48:56.672Z,100.00
2022-11-11T06:51:23.103Z,100.00
2022-11-11T06:53:49.623Z,100.00
2022-11-11T06:56:16.091Z,100.00
2022-11-11T06:58:42.574Z,100.00
2022-11-11T07:01:09.829Z,100.00
2022-11-11T07:03:36.905Z,100.00
2022-11-11T07:06:05.407Z,100.00
2022-11-11T07:08:32.531Z,100.00
2022-11-11T07:11:03.161Z,100.00
2022-11-11T07:13:33.705Z,100.00
2022-11-11T07:16:00.121Z,100.00
2022-11-11T07:18:26.801Z,100.00
2022-11-11T07:20:53.448Z,100.00
2022-11-11T07:23:19.894Z,100.00
2022-11-11T07:25:46.266Z,100.00
2022-11-11T07:28:12.741Z,100.00
2022-11-11T07:30:39.235Z,100.00
2022-11-11T07:33:05.675Z,100.00
2022-11-11T07:35:32.163Z,100.00
2022-11-11T07:37:58.605Z,100.00
2022-11-11T07:40:25.019Z,100.00
2022-11-11T07:42:51.443Z,100.00
2022-11-11T07:45:17.967Z,100.00
2022-11-11T07:47:44.825Z,100.00
2022-11-11T07:50:11.813Z,100.00
2022-11-11T07:52:38.218Z,100.00
2022-11-11T07:55:06.079Z,100.00
2022-11-11T07:57:32.628Z,100.00
2022-11-11T07:59:59.368Z,100.00
2022-11-11T08:02:25.857Z,100.00
2022-11-11T08:04:55.282Z,100.00
2022-11-11T08:07:23.710Z,100.00
2022-11-11T08:09:50.681Z,100.00
2022-11-11T08:12:35.484Z,100.00
2022-11-11T08:15:06.238Z,100.00
2022-11-11T08:17:40.323Z,100.00
2022-11-11T08:20:09.008Z,100.00
2022-11-11T08:22:37.422Z,100.00
2022-11-11T08:25:05.649Z,100.00
2022-11-11T08:27:32.237Z,100.00
2022-11-11T08:29:58.710Z,100.00
2022-11-11T08:32:25.247Z,100.00
2022-11-11T08:34:51.648Z,100.00
2022-11-11T08:37:18.096Z,100.00
2022-11-11T08:39:44.503Z,100.00
2022-11-11T08:42:11.133Z,100.00
2022-11-11T08:44:37.626Z,100.00
2022-11-11T08:47:04.206Z,100.00
2022-11-11T08:49:30.899Z,100.00
2022-11-11T08:51:57.360Z,100.00
2022-11-11T08:54:23.770Z,100.00
2022-11-11T08:56:50.263Z,100.00
2022-11-11T08:59:16.861Z,100.00
2022-11-11T09:01:43.331Z,100.00
2022-11-11T09:04:42.963Z,100.00
2022-11-11T09:06:56.745Z,100.00
2022-11-11T09:09:23.316Z,93.39
2022-11-11T09:11:49.737Z,98.77
2022-11-11T09:14:16.281Z,95.77
2022-11-11T09:16:42.687Z,87.93
2022-11-11T09:19:09.174Z,86.85
2022-11-11T09:21:35.581Z,80.17
2022-11-11T09:24:02.016Z,77.31
2022-11-11T09:26:28.625Z,84.61
2022-11-11T09:28:55.088Z,80.19
2022-11-11T09:34:10.253Z,70.65
2022-11-11T09:36:36.709Z,73.55
2022-11-11T09:39:03.514Z,74.44
2022-11-11T09:42:16.835Z,75.38
2022-11-11T09:45:04.996Z,78.85
2022-11-11T09:47:56.595Z,82.31
2022-11-11T09:50:33.475Z,84.58
2022-11-11T09:53:05.299Z,84.69
2022-11-11T09:55:31.645Z,82.51
2022-11-11T09:58:05.756Z,81.85
2022-11-11T10:00:38.072Z,85.12
2022-11-11T10:03:10.420Z,85.96
2022-11-11T10:05:45.872Z,88.35
2022-11-11T10:08:28.333Z,85.41
2022-11-11T10:10:58.373Z,83.71
2022-11-11T10:13:36.659Z,81.49
2022-11-11T10:16:19.113Z,83.84
2022-11-11T10:19:04.341Z,82.93
2022-11-11T10:22:05.696Z,86.87
2022-11-11T10:24:32.525Z,87.07
2022-11-11T10:27:15.266Z,86.87
2022-11-11T10:29:44.438Z,90.19
2022-11-11T10:32:25.076Z,88.11
2022-11-11T10:34:51.958Z,89.26
2022-11-11T10:37:40.830Z,86.83
2022-11-11T10:40:21.913Z,87.03
2022-11-11T10:42:48.468Z,85.63
2022-11-11T10:45:23.895Z,86.69
2022-11-11T10:48:12.180Z,89.67
2022-11-11T10:50:43.211Z,90.18
2022-11-11T10:53:23.037Z,88.19
2022-11-11T10:55:57.483Z,87.31
2022-11-11T10:58:40.968Z,88.55
2022-11-11T11:01:13.771Z,85.41
2022-11-11T11:03:45.720Z,84.97
2022-11-11T11:06:35.375Z,85.62
2022-11-11T11:09:19.920Z,87.29
2022-11-11T11:12:07.196Z,84.88
2022-11-11T11:14:39.346Z,85.26
2022-11-11T11:17:12.008Z,87.62
2022-11-11T11:19:38.549Z,87.83
2022-11-11T11:22:05.171Z,87.29
2022-11-11T11:24:33.907Z,86.21
2022-11-11T11:27:07.677Z,86.09
2022-11-11T11:29:39.892Z,87.37
2022-11-11T11:32:27.605Z,87.42
2022-11-11T11:34:56.007Z,90.93
2022-11-11T11:37:25.005Z,89.94
2022-11-11T11:40:05.687Z,89.34
2022-11-11T11:42:37.582Z,89.50
2022-11-11T11:45:21.552Z,90.34
2022-11-11T11:48:41.372Z,89.03
2022-11-11T11:51:16.870Z,90.03
2022-11-11T11:53:50.333Z,90.85
2022-11-11T11:56:52.195Z,90.11
2022-11-11T11:59:32.317Z,91.70
2022-11-11T12:02:02.502Z,90.22
2022-11-11T12:04:44.307Z,89.11
2022-11-11T12:07:25.306Z,90.22
2022-11-11T12:10:01.575Z,90.66
2022-11-11T12:12:46.713Z,91.14
2022-11-11T12:15:27.411Z,89.46
2022-11-11T12:18:22.246Z,88.20
2022-11-11T12:21:13.047Z,88.07
2022-11-11T12:23:54.718Z,86.29
2022-11-11T12:26:47.213Z,87.06
2022-11-11T12:29:28.697Z,86.10
2022-11-11T12:32:02.333Z,87.10
2022-11-11T12:34:47.468Z,87.02
2022-11-11T12:37:40.109Z,89.71
2022-11-11T12:40:33.886Z,89.02
2022-11-11T12:43:25.090Z,89.41
2022-11-11T12:46:00.982Z,90.42
2022-11-11T12:48:27.418Z,89.58
2022-11-11T12:51:18.132Z,89.74
2022-11-11T12:54:06.404Z,90.46
2022-11-11T12:56:52.850Z,88.44
2022-11-11T12:59:43.219Z,87.46
2022-11-11T13:02:37.440Z,85.39
2022-11-11T13:05:30.130Z,86.38
2022-11-11T13:08:08.917Z,89.34
2022-11-11T13:11:16.521Z,90.44
2022-11-11T13:14:01.829Z,88.07
2022-11-11T13:16:28.298Z,90.26
2022-11-11T13:19:11.509Z,90.40
2022-11-11T13:21:50.897Z,88.83
2022-11-11T13:24:22.914Z,88.22
2022-11-11T13:26:51.723Z,89.82
2022-11-11T13:29:40.153Z,90.94
2022-11-11T13:32:13.227Z,90.36
2022-11-11T13:34:40.603Z,88.83
2022-11-11T13:37:10.177Z,90.06
2022-11-11T13:40:00.595Z,89.95
2022-11-11T13:42:31.558Z,91.19
2022-11-11T13:45:02.489Z,90.29
2022-11-11T13:47:39.787Z,89.51
2022-11-11T13:50:22.404Z,88.77
2022-11-11T13:53:03.241Z,89.21
2022-11-11T13:55:45.113Z,90.39
2022-11-11T13:58:25.333Z,88.90
2022-11-11T14:01:00.272Z,90.32
2022-11-11T14:03:27.228Z,89.53
2022-11-11T14:06:30.863Z,91.03
2022-11-11T14:08:57.893Z,91.92
2022-11-11T14:11:24.307Z,90.89
2022-11-11T14:13:55.340Z,92.56
2022-11-11T14:16:37.176Z,93.46
2022-11-11T14:19:33.426Z,93.74
2022-11-11T14:22:01.848Z,94.64
2022-11-11T14:24:44.826Z,95.06
2022-11-11T14:27:11.282Z,94.99
2022-11-11T14:29:48.936Z,95.97
2022-11-11T14:32:54.267Z,97.09
2022-11-11T14:35:38.138Z,96.58
2022-11-11T14:38:20.314Z,96.38
2022-11-11T14:40:47.005Z,97.42
2022-11-11T14:43:33.497Z,97.63
2022-11-11T14:46:08.434Z,97.98
2022-11-11T14:48:50.936Z,97.66
2022-11-11T14:51:37.224Z,97.41
2022-11-11T14:54:05.926Z,97.96
2022-11-11T14:56:32.840Z,98.50
2022-11-11T14:59:06.852Z,98.41
2022-11-11T15:01:33.681Z,99.19
2022-11-11T15:04:04.162Z,99.51
2022-11-11T15:06:41.605Z,99.81
2022-11-11T15:09:37.478Z,100.00
2022-11-11T15:12:42.706Z,100.00
2022-11-11T15:15:15.289Z,100.00
2022-11-11T15:18:00.405Z,100.00
2022-11-11T15:20:30.079Z,100.00
2022-11-11T15:23:14.944Z,100.00
2022-11-11T15:25:44.196Z,100.00
2022-11-11T15:28:48.843Z,100.00
2022-11-11T15:31:42.622Z,100.00
2022-11-11T15:34:17.521Z,100.00
2022-11-11T15:36:53.390Z,100.00
2022-11-11T15:39:24.640Z,100.00
2022-11-11T15:41:52.266Z,100.00
2022-11-11T15:44:24.007Z,100.00
2022-11-11T15:46:50.919Z,100.00
2022-11-11T15:49:49.693Z,100.00
2022-11-11T15:52:28.222Z,100.00
2022-11-11T15:54:55.466Z,100.00
2022-11-11T15:57:23.429Z,100.00
2022-11-11T15:59:49.920Z,100.00
2022-11-11T16:02:28.144Z,100.00
2022-11-11T16:04:58.900Z,100.00
2022-11-11T16:07:31.091Z,100.00
2022-11-11T16:10:05.145Z,100.00
2022-11-11T16:12:55.707Z,100.00
2022-11-11T16:15:37.561Z,100.00
2022-11-11T16:18:08.291Z,100.00
2022-11-11T16:20:42.189Z,100.00
2022-11-11T16:23:09.807Z,100.00
2022-11-11T16:25:38.128Z,100.00
2022-11-11T16:28:05.144Z,100.00
2022-11-11T16:30:35.927Z,100.00
2022-11-11T16:33:03.264Z,100.00
2022-11-11T16:35:36.319Z,100.00
2022-11-11T16:38:04.095Z,100.00
2022-11-11T16:40:37.646Z,100.00
2022-11-11T16:43:20.811Z,100.00
2022-11-11T16:46:01.157Z,100.00
2022-11-11T16:48:42.545Z,100.00
2022-11-11T16:51:13.503Z,100.00
2022-11-11T16:53:45.386Z,100.00
2022-11-11T16:56:42.195Z,100.00
2022-11-11T16:59:17.938Z,100.00
2022-11-11T17:01:46.373Z,100.00
2022-11-11T17:04:13.536Z,100.00
2022-11-11T17:06:59.704Z,100.00
2022-11-11T17:09:44.902Z,100.00
2022-11-11T17:12:12.010Z,100.00
2022-11-11T17:14:39.077Z,100.00
2022-11-11T17:17:08.391Z,100.00
2022-11-11T17:19:35.151Z,100.00
2022-11-11T17:22:10.555Z,100.00
2022-11-11T17:24:37.351Z,100.00
2022-11-11T17:27:04.403Z,100.00
2022-11-11T17:29:33.360Z,100.00
2022-11-11T17:32:03.995Z,100.00
2022-11-11T17:34:30.474Z,100.00
2022-11-11T17:36:57.027Z,100.00
2022-11-11T17:39:23.557Z,100.00
2022-11-11T17:41:50.077Z,100.00
2022-11-11T17:44:16.496Z,100.00
2022-11-11T17:46:43.558Z,100.00
2022-11-11T17:49:11.818Z,100.00
2022-11-11T17:51:40.392Z,100.00
2022-11-11T17:54:10.168Z,100.00
2022-11-11T17:56:38.783Z,100.00
2022-11-11T17:59:07.917Z,100.00
2022-11-11T18:01:34.499Z,100.00
2022-11-11T18:04:00.974Z,100.00
2022-11-11T18:06:27.516Z,100.00
2022-11-11T18:08:53.974Z,100.00
2022-11-11T18:11:20.459Z,100.00
2022-11-11T18:13:46.897Z,100.00
2022-11-11T18:16:18.485Z,100.00
2022-11-11T18:18:44.999Z,100.00
2022-11-11T18:21:11.557Z,100.00
2022-11-11T18:23:39.799Z,100.00
2022-11-11T18:26:07.985Z,100.00
2022-11-11T18:28:38.220Z,100.00
2022-11-11T18:31:05.083Z,100.00
2022-11-11T18:33:32.008Z,100.00
2022-11-11T18:36:06.727Z,100.00
2022-11-11T18:38:33.957Z,100.00
2022-11-11T18:41:05.186Z,100.00
2022-11-11T18:43:36.473Z,100.00
2022-11-11T18:46:05.538Z,100.00
2022-11-11T18:48:31.951Z,100.00
2022-11-11T18:50:58.415Z,100.00
2022-11-11T18:53:25.483Z,100.00
2022-11-11T18:55:52.126Z,100.00
2022-11-11T18:58:19.751Z,100.00
2022-11-11T19:00:46.391Z,100.00
2022-11-11T19:03:12.835Z,100.00
2022-11-11T19:05:39.305Z,100.00
2022-11-11T19:08:05.803Z,100.00
2022-11-11T19:10:32.297Z,100.00
2022-11-11T19:12:58.730Z,100.00
2022-11-11T19:15:25.277Z,100.00
2022-11-11T19:17:52.021Z,100.00
2022-11-11T19:20:18.495Z,100.00
2022-11-11T19:22:44.909Z,100.00
2022-11-11T19:25:11.340Z,100.00
2022-11-11T19:27:37.743Z,100.00
2022-11-11T19:30:04.583Z,100.00
2022-11-11T19:32:30.973Z,100.00
2022-11-11T19:34:57.904Z,100.00
2022-11-11T19:37:24.435Z,100.00
2022-11-11T19:39:50.844Z,100.00
2022-11-11T19:42:17.341Z,100.00
2022-11-11T19:44:43.805Z,100.00
2022-11-11T19:47:10.217Z,100.00
2022-11-11T19:49:36.641Z,100.00
2022-11-11T19:52:03.202Z,100.00
2022-11-11T19:54:29.604Z,100.00
2022-11-11T19:56:56.073Z,100.00
2022-11-11T19:59:22.572Z,100.00
2022-11-11T20:01:49.247Z,100.00
2022-11-11T20:04:15.749Z,100.00
2022-11-11T20:06:42.778Z,100.00
2022-11-11T20:09:09.715Z,100.00
2022-11-11T20:11:41.933Z,100.00
2022-11-11T20:14:08.523Z,100.00
2022-11-11T20:16:35.017Z,100.00
2022-11-11T20:19:01.757Z,100.00
2022-11-11T20:21:28.578Z,100.00
2022-11-11T20:23:55.031Z,100.00
2022-11-11T20:26:22.624Z,100.00
2022-11-11T20:28:55.120Z,100.00
2022-11-11T20:31:21.588Z,100.00
2022-11-11T20:33:50.149Z,100.00
2022-11-11T20:36:17.445Z,100.00
2022-11-11T20:38:43.869Z,100.00
2022-11-11T20:41:12.976Z,100.00
2022-11-11T20:43:40.054Z,100.00
2022-11-11T20:46:11.939Z,100.00
2022-11-11T20:48:44.298Z,100.00
2022-11-11T20:51:16.201Z,100.00
2022-11-11T20:53:43.019Z,100.00
2022-11-11T20:56:23.361Z,100.00
2022-11-11T20:58:51.922Z,100.00
2022-11-11T21:01:26.363Z,100.00
2022-11-11T21:03:55.643Z,100.00
2022-11-11T21:06:22.805Z,100.00
2022-11-11T21:08:49.781Z,100.00
2022-11-11T21:11:18.347Z,100.00
2022-11-11T21:13:46.599Z,100.00
2022-11-11T21:16:21.588Z,100.00
2022-11-11T21:18:49.065Z,100.00
2022-11-11T21:21:17.753Z,100.00
2022-11-11T21:23:44.949Z,100.00
2022-11-11T21:26:16.736Z,100.00
2022-11-11T21:28:44.731Z,100.00
2022-11-11T21:31:25.579Z,100.00
2022-11-11T21:33:52.885Z,100.00
2022-11-11T21:36:20.860Z,100.00
2022-11-11T21:38:47.863Z,100.00
2022-11-11T21:41:17.167Z,100.00
2022-11-11T21:43:44.244Z,100.00
2022-11-11T21:46:13.859Z,100.00
2022-11-11T21:48:40.422Z,100.00
2022-11-11T21:51:14.130Z,100.00
2022-11-11T21:53:42.790Z,100.00
2022-11-11T21:56:13.999Z,100.00
2022-11-11T21:58:41.940Z,100.00
2022-11-11T22:01:10.043Z,100.00
2022-11-11T22:03:38.346Z,100.00
2022-11-11T22:06:10.469Z,100.00
2022-11-11T22:08:37.871Z,100.00
2022-11-11T22:11:13.546Z,100.00
2022-11-11T22:13:41.523Z,100.00
2022-11-11T22:16:10.020Z,100.00
2022-11-11T22:18:39.663Z,100.00
2022-11-11T22:21:20.273Z,100.00
2022-11-11T22:23:51.875Z,100.00
2022-11-11T22:26:19.315Z,100.00
2022-11-11T22:28:51.204Z,100.00
2022-11-11T22:31:22.522Z,100.00
2022-11-11T22:33:57.215Z,100.00
2022-11-11T22:36:23.799Z,100.00
2022-11-11T22:38:50.390Z,100.00
2022-11-11T22:41:20.792Z,100.00
2022-11-11T22:44:04.739Z,100.00
2022-11-11T22:46:33.596Z,100.00
2022-11-11T22:49:02.935Z,100.00
2022-11-11T22:51:31.522Z,100.00
2022-11-11T22:54:04.586Z,100.00
2022-11-11T22:56:32.602Z,100.00
2022-11-11T22:58:59.071Z,100.00
2022-11-11T23:01:30.565Z,100.00
2022-11-11T23:04:00.106Z,100.00
2022-11-11T23:06:32.524Z,100.00
2022-11-11T23:08:59.657Z,100.00
2022-11-11T23:11:28.613Z,100.00
2022-11-11T23:14:01.006Z,100.00
2022-11-11T23:16:28.402Z,100.00
2022-11-11T23:18:55.162Z,100.00
2022-11-11T23:21:23.371Z,100.00
2022-11-11T23:23:51.114Z,100.00
2022-11-11T23:26:23.209Z,100.00
2022-11-11T23:28:49.792Z,100.00
2022-11-11T23:31:19.349Z,100.00
2022-11-11T23:33:48.804Z,100.00
2022-11-11T23:36:18.859Z,100.00
2022-11-11T23:38:45.957Z,100.00
2022-11-11T23:41:12.589Z,100.00
2022-11-11T23:43:39.460Z,100.00
2022-11-11T23:46:06.491Z,100.00
2022-11-11T23:48:33.788Z,100.00
2022-11-11T23:51:01.470Z,100.00
2022-11-11T23:53:28.735Z,100.00
2022-11-11T23:55:56.028Z,100.00
2022-11-11T23:58:22.676Z,100.00
